createdAt,value
2018-02-01T00:00:41.958Z,9.17
2018-02-01T00:03:17.017Z,5.13
2018-02-01T00:05:49.521Z,4.33
2018-02-01T00:08:22.002Z,3.60
2018-02-01T00:10:54.499Z,3.50
2018-02-01T00:13:26.968Z,6.10
2018-02-01T00:15:59.468Z,4.83
2018-02-01T00:18:31.947Z,4.13
2018-02-01T00:21:04.453Z,10.50
2018-02-01T00:23:36.922Z,6.83
2018-02-01T00:26:09.411Z,2.53
2018-02-01T00:28:41.891Z,5.20
2018-02-01T00:31:14.401Z,6.30
2018-02-01T00:33:46.903Z,5.10
2018-02-01T00:36:19.492Z,5.33
2018-02-01T00:38:51.970Z,2.70
2018-02-01T00:41:24.467Z,6.70
2018-02-01T00:43:57.804Z,5.00
2018-02-01T00:46:30.310Z,4.13
2018-02-01T00:49:02.819Z,2.80
2018-02-01T00:51:35.313Z,4.17
2018-02-01T00:54:07.805Z,3.50
2018-02-01T00:56:40.306Z,16.27
2018-02-01T00:59:12.797Z,9.20
2018-02-01T01:01:45.290Z,5.63
2018-02-01T01:04:17.785Z,8.13
2018-02-01T01:06:50.309Z,16.77
2018-02-01T01:09:22.784Z,12.40
2018-02-01T01:11:55.288Z,9.20
2018-02-01T01:14:27.830Z,13.73
2018-02-01T01:17:00.338Z,9.47
2018-02-01T01:19:32.806Z,9.10
2018-02-01T01:22:05.299Z,10.97
2018-02-01T01:24:37.781Z,14.60
2018-02-01T01:27:10.325Z,12.90
2018-02-01T01:29:42.818Z,25.87
2018-02-01T01:32:15.315Z,8.40
2018-02-01T01:34:47.783Z,19.80
2018-02-01T01:37:20.304Z,28.27
2018-02-01T01:39:52.782Z,10.77
2018-02-01T01:42:25.415Z,19.83
2018-02-01T01:44:57.890Z,25.97
2018-02-01T01:47:30.395Z,23.47
2018-02-01T01:50:02.888Z,10.53
2018-02-01T01:52:35.401Z,13.20
2018-02-01T01:55:07.905Z,10.80
2018-02-01T01:57:40.423Z,40.60
2018-02-01T02:00:12.910Z,30.97
2018-02-01T02:02:45.485Z,12.80
2018-02-01T02:05:17.964Z,16.90
2018-02-01T02:07:50.455Z,26.27
2018-02-01T02:10:22.978Z,14.50
2018-02-01T02:12:57.611Z,55.77
2018-02-01T02:15:30.087Z,20.73
2018-02-01T02:18:02.623Z,12.67
2018-02-01T02:20:35.107Z,16.57
2018-02-01T02:23:07.644Z,13.13
2018-02-01T02:25:40.133Z,15.83
2018-02-01T02:28:13.134Z,23.73
2018-02-01T02:30:45.618Z,24.30
2018-02-01T02:33:18.135Z,30.60
2018-02-01T02:35:50.620Z,26.00
2018-02-01T02:38:23.117Z,13.13
2018-02-01T02:40:56.680Z,35.63
2018-02-01T02:43:29.215Z,12.93
2018-02-01T02:46:01.698Z,18.37
2018-02-01T02:48:34.248Z,21.13
2018-02-01T02:51:06.732Z,35.77
2018-02-01T02:53:39.232Z,17.73
2018-02-01T02:56:11.718Z,34.33
2018-02-01T02:58:44.223Z,19.77
2018-02-01T03:01:16.704Z,19.77
2018-02-01T03:03:49.223Z,20.90
2018-02-01T03:06:21.788Z,13.87
2018-02-01T03:08:54.322Z,22.00
2018-02-01T03:11:27.964Z,39.00
2018-02-01T03:14:00.471Z,31.37
2018-02-01T03:16:32.979Z,22.27
2018-02-01T03:19:05.462Z,21.07
2018-02-01T03:21:37.965Z,18.17
2018-02-01T03:24:10.453Z,17.17
2018-02-01T03:26:42.971Z,24.80
2018-02-01T03:29:15.439Z,11.83
2018-02-01T03:31:47.942Z,15.93
2018-02-01T03:34:20.425Z,17.20
2018-02-01T03:36:52.928Z,44.43
2018-02-01T03:39:27.524Z,32.80
2018-02-01T03:42:00.245Z,17.10
2018-02-01T03:44:32.741Z,21.90
2018-02-01T03:47:05.241Z,30.43
2018-02-01T03:49:37.735Z,18.20
2018-02-01T03:52:10.237Z,19.47
2018-02-01T03:54:43.671Z,17.97
2018-02-01T03:57:16.296Z,42.40
2018-02-01T03:59:48.782Z,18.23
2018-02-01T04:02:21.287Z,36.10
2018-02-01T04:04:53.786Z,16.50
2018-02-01T04:07:26.293Z,22.33
2018-02-01T04:09:58.772Z,22.10
2018-02-01T04:12:31.340Z,15.77
2018-02-01T04:15:03.858Z,23.23
2018-02-01T04:17:36.377Z,30.33
2018-02-01T04:20:08.862Z,13.70
2018-02-01T04:22:41.425Z,30.43
2018-02-01T04:25:13.908Z,26.20
2018-02-01T04:27:46.425Z,23.40
2018-02-01T04:30:18.903Z,25.47
2018-02-01T04:32:52.275Z,24.53
2018-02-01T04:35:24.756Z,26.20
2018-02-01T04:37:58.153Z,27.47
2018-02-01T04:40:30.645Z,42.33
2018-02-01T04:43:03.505Z,24.33
2018-02-01T04:45:35.990Z,51.10
2018-02-01T04:48:08.491Z,33.43
2018-02-01T04:50:40.974Z,31.83
2018-02-01T04:53:13.497Z,21.20
2018-02-01T04:55:45.985Z,45.27
2018-02-01T04:58:18.515Z,38.00
2018-02-01T05:00:50.995Z,36.57
2018-02-01T05:03:23.508Z,27.33
2018-02-01T05:05:58.459Z,66.47
2018-02-01T05:08:31.001Z,24.40
2018-02-01T05:11:03.503Z,43.27
2018-02-01T05:13:36.010Z,25.70
2018-02-01T05:16:08.515Z,26.33
2018-02-01T05:18:41.032Z,28.53
2018-02-01T05:21:13.535Z,138.97
2018-02-01T05:23:46.050Z,22.33
2018-02-01T05:26:18.532Z,42.37
2018-02-01T05:28:51.043Z,34.37
2018-02-01T05:31:23.529Z,48.67
2018-02-01T05:33:58.539Z,70.30
2018-02-01T05:36:31.023Z,59.63
2018-02-01T05:39:03.524Z,49.87
2018-02-01T05:41:36.020Z,62.23
2018-02-01T05:44:08.534Z,55.57
2018-02-01T05:46:41.010Z,101.87
2018-02-01T05:49:13.518Z,38.50
2018-02-01T05:51:46.123Z,52.63
2018-02-01T05:54:18.632Z,70.40
2018-02-01T05:56:51.125Z,36.90
2018-02-01T05:59:23.632Z,52.27
2018-02-01T06:01:57.063Z,64.60
2018-02-01T06:04:29.564Z,37.27
2018-02-01T06:07:02.055Z,56.70
2018-02-01T06:09:34.574Z,60.80
2018-02-01T06:12:07.068Z,62.00
2018-02-01T06:14:39.562Z,57.63
2018-02-01T06:17:12.078Z,42.43
2018-02-01T06:19:44.588Z,68.57
2018-02-01T06:22:18.240Z,51.13
2018-02-01T06:24:50.768Z,71.60
2018-02-01T06:27:23.250Z,44.60
2018-02-01T06:29:55.907Z,59.27
2018-02-01T06:32:28.395Z,91.63
2018-02-01T06:35:00.911Z,66.37
2018-02-01T06:37:33.474Z,86.10
2018-02-01T06:40:05.962Z,126.10
2018-02-01T06:42:38.622Z,54.60
2018-02-01T06:45:11.103Z,68.00
2018-02-01T06:47:43.625Z,69.33
2018-02-01T06:50:16.120Z,39.43
2018-02-01T06:52:48.646Z,58.50
2018-02-01T06:55:21.453Z,37.43
2018-02-01T06:57:54.036Z,73.93
2018-02-01T07:00:27.422Z,61.43
2018-02-01T07:02:59.944Z,51.13
2018-02-01T07:05:32.508Z,55.30
2018-02-01T07:08:05.031Z,61.77
2018-02-01T07:10:37.538Z,54.90
2018-02-01T07:13:10.054Z,77.77
2018-02-01T07:15:42.540Z,78.07
2018-02-01T07:18:15.053Z,64.83
2018-02-01T07:20:47.558Z,97.37
2018-02-01T07:23:20.064Z,69.80
2018-02-01T07:25:52.551Z,56.07
2018-02-01T07:28:26.669Z,111.33
2018-02-01T07:30:59.160Z,52.13
2018-02-01T07:33:31.670Z,73.77
2018-02-01T07:36:04.161Z,59.10
2018-02-01T07:38:36.725Z,131.40
2018-02-01T07:41:09.216Z,69.07
2018-02-01T07:43:41.729Z,46.17
2018-02-01T07:46:14.726Z,56.27
2018-02-01T07:48:47.247Z,58.37
2018-02-01T07:51:19.726Z,87.57
2018-02-01T07:53:52.238Z,52.53
2018-02-01T07:56:24.741Z,55.23
2018-02-01T07:58:58.451Z,70.00
2018-02-01T08:01:30.938Z,79.00
2018-02-01T08:04:03.443Z,84.83
2018-02-01T08:06:35.936Z,80.33
2018-02-01T08:09:08.441Z,80.40
2018-02-01T08:11:40.924Z,64.40
2018-02-01T08:14:13.467Z,120.93
2018-02-01T08:16:46.032Z,48.17
2018-02-01T08:19:19.092Z,53.90
2018-02-01T08:21:51.581Z,64.20
2018-02-01T08:24:24.096Z,50.63
2018-02-01T08:26:57.551Z,54.87
2018-02-01T08:29:30.140Z,46.63
2018-02-01T08:32:02.663Z,73.20
2018-02-01T08:34:35.296Z,61.83
2018-02-01T08:37:07.784Z,58.90
2018-02-01T08:39:40.294Z,54.60
2018-02-01T08:42:12.782Z,66.07
2018-02-01T08:44:45.399Z,65.50
2018-02-01T08:47:17.881Z,37.97
2018-02-01T08:49:50.391Z,69.90
2018-02-01T08:52:22.887Z,53.97
2018-02-01T08:54:55.429Z,64.63
2018-02-01T08:57:27.957Z,42.87
2018-02-01T09:00:00.471Z,47.40
2018-02-01T09:02:32.983Z,43.20
2018-02-01T09:05:05.579Z,79.67
2018-02-01T09:07:38.082Z,49.67
2018-02-01T09:10:10.624Z,70.50
2018-02-01T09:12:43.133Z,43.27
2018-02-01T09:15:15.749Z,57.47
2018-02-01T09:17:48.252Z,96.13
2018-02-01T09:20:20.775Z,57.97
2018-02-01T09:22:54.071Z,40.00
2018-02-01T09:25:26.589Z,51.70
2018-02-01T09:27:59.088Z,44.23
2018-02-01T09:30:31.604Z,65.67
2018-02-01T09:33:04.103Z,43.37
2018-02-01T09:35:36.634Z,44.93
2018-02-01T09:38:09.132Z,37.37
2018-02-01T09:40:41.645Z,36.47
2018-02-01T09:43:14.122Z,39.43
2018-02-01T09:45:46.665Z,42.93
2018-02-01T09:48:19.175Z,35.77
2018-02-01T09:50:51.683Z,39.07
2018-02-01T09:53:24.186Z,32.43
2018-02-01T09:55:57.500Z,33.97
2018-02-01T09:58:30.028Z,25.37
2018-02-01T10:01:02.539Z,36.47
2018-02-01T10:03:35.060Z,27.27
2018-02-01T10:06:07.560Z,36.77
2018-02-01T10:08:40.096Z,36.37
2018-02-01T10:11:12.590Z,33.10
2018-02-01T10:13:45.131Z,26.80
2018-02-01T10:16:17.677Z,32.07
2018-02-01T10:18:50.238Z,38.20
2018-02-01T10:21:22.714Z,24.67
2018-02-01T10:23:55.482Z,29.80
2018-02-01T10:26:27.975Z,31.83
2018-02-01T10:29:00.752Z,24.30
2018-02-01T10:31:33.248Z,28.00
2018-02-01T10:34:06.773Z,32.27
2018-02-01T10:36:39.706Z,31.27
2018-02-01T10:39:12.217Z,27.17
2018-02-01T10:41:44.741Z,25.27
2018-02-01T10:44:18.515Z,27.60
2018-02-01T10:46:51.193Z,34.73
2018-02-01T10:49:23.814Z,29.23
2018-02-01T10:51:57.735Z,25.77
2018-02-01T10:54:30.275Z,31.13
2018-02-01T10:57:02.812Z,22.67
2018-02-01T10:59:35.335Z,21.57
2018-02-01T11:02:07.851Z,18.83
2018-02-01T11:04:40.373Z,21.17
2018-02-01T11:07:12.860Z,20.00
2018-02-01T11:09:45.375Z,24.37
2018-02-01T11:12:17.865Z,23.73
2018-02-01T11:14:50.389Z,21.30
2018-02-01T11:17:22.913Z,19.87
2018-02-01T11:19:56.417Z,25.13
2018-02-01T11:22:28.909Z,18.63
2018-02-01T11:25:01.509Z,23.23
2018-02-01T11:27:34.075Z,20.83
2018-02-01T11:30:06.584Z,27.37
2018-02-01T11:32:39.082Z,16.27
2018-02-01T11:35:11.610Z,14.67
2018-02-01T11:37:44.119Z,28.60
2018-02-01T11:40:16.629Z,18.87
2018-02-01T11:42:49.183Z,17.93
2018-02-01T11:45:21.691Z,20.63
2018-02-01T11:47:54.229Z,22.50
2018-02-01T11:50:27.254Z,25.07
2018-02-01T11:52:59.740Z,17.80
2018-02-01T11:55:32.272Z,17.43
2018-02-01T11:58:04.756Z,17.27
2018-02-01T12:00:37.276Z,19.70
2018-02-01T12:03:09.785Z,17.93
2018-02-01T12:05:42.301Z,15.10
2018-02-01T12:08:14.791Z,20.40
2018-02-01T12:10:47.294Z,14.93
2018-02-01T12:13:19.788Z,22.50
2018-02-01T12:15:52.291Z,19.17
2018-02-01T12:18:24.780Z,15.43
2018-02-01T12:20:58.011Z,16.30
2018-02-01T12:23:30.507Z,15.20
2018-02-01T12:26:03.025Z,15.47
2018-02-01T12:28:35.512Z,13.53
2018-02-01T12:31:08.046Z,15.33
2018-02-01T12:33:40.539Z,11.77
2018-02-01T12:36:13.045Z,16.13
2018-02-01T12:38:45.532Z,13.30
2018-02-01T12:41:18.046Z,16.37
2018-02-01T12:43:50.536Z,11.23
2018-02-01T12:46:23.035Z,17.03
2018-02-01T12:48:57.024Z,16.97
2018-02-01T12:51:29.540Z,11.33
2018-02-01T12:54:02.031Z,14.37
2018-02-01T12:56:35.490Z,17.27
2018-02-01T12:59:07.982Z,18.13
2018-02-01T13:01:40.537Z,19.63
2018-02-01T13:04:13.047Z,24.47
2018-02-01T13:06:45.562Z,18.20
2018-02-01T13:09:18.052Z,17.10
2018-02-01T13:11:50.637Z,19.07
2018-02-01T13:14:23.172Z,10.17
2018-02-01T13:16:55.701Z,14.83
2018-02-01T13:19:28.863Z,10.63
2018-02-01T13:22:01.437Z,17.13
2018-02-01T13:24:35.033Z,15.30
2018-02-01T13:27:07.651Z,12.63
2018-02-01T13:29:40.176Z,12.07
2018-02-01T13:32:12.775Z,11.30
2018-02-01T13:34:45.349Z,12.73
2018-02-01T13:37:17.928Z,17.80
2018-02-01T13:39:50.420Z,9.50
2018-02-01T13:42:23.004Z,8.87
2018-02-01T13:44:55.530Z,10.90
2018-02-01T13:47:28.426Z,13.20
2018-02-01T13:50:00.927Z,11.50
2018-02-01T13:52:33.442Z,13.63
2018-02-01T15:20:08.034Z,22.00
2018-02-01T15:22:41.399Z,24.07
2018-02-01T15:25:13.904Z,26.10
2018-02-01T15:27:46.411Z,17.57
2018-02-01T15:30:18.907Z,25.50
2018-02-01T15:32:51.434Z,18.23
2018-02-01T15:35:23.925Z,19.57
2018-02-01T15:37:57.096Z,20.20
2018-02-01T15:40:29.610Z,18.60
2018-02-01T15:43:02.134Z,42.20
2018-02-01T15:45:34.647Z,25.83
2018-02-01T15:48:07.177Z,23.13
2018-02-01T15:50:39.684Z,29.67
2018-02-01T15:53:12.207Z,20.43
2018-02-01T15:55:44.739Z,27.73
2018-02-01T15:58:17.240Z,22.37
2018-02-01T16:00:49.791Z,37.43
2018-02-01T16:03:22.298Z,22.43
2018-02-01T16:05:54.815Z,23.77
2018-02-01T16:08:27.326Z,63.93
2018-02-01T16:10:59.836Z,48.50
2018-02-01T16:13:32.331Z,37.03
2018-02-01T16:16:04.866Z,33.33
2018-02-01T16:18:37.378Z,25.47
2018-02-01T16:21:10.303Z,32.07
2018-02-01T16:23:42.795Z,29.33
2018-02-01T16:26:15.321Z,21.70
2018-02-01T16:28:47.847Z,28.43
2018-02-01T16:31:20.382Z,62.80
2018-02-01T16:33:52.880Z,53.97
2018-02-01T16:36:25.405Z,34.63
2018-02-01T16:38:58.737Z,55.43
2018-02-01T16:41:31.279Z,28.80
2018-02-01T16:44:03.775Z,73.50
2018-02-01T16:46:36.287Z,33.63
2018-02-01T16:49:08.789Z,24.17
2018-02-01T16:51:41.343Z,59.33
2018-02-01T16:54:13.849Z,25.60
2018-02-01T16:56:46.378Z,18.40
2018-02-01T16:59:18.878Z,21.10
2018-02-01T17:01:51.413Z,40.50
2018-02-01T17:04:23.923Z,20.87
2018-02-01T17:06:57.036Z,27.90
2018-02-01T17:09:29.534Z,30.90
2018-02-01T17:12:02.060Z,22.43
2018-02-01T17:14:34.548Z,32.30
2018-02-01T17:17:07.113Z,15.93
2018-02-01T17:19:39.616Z,45.40
2018-02-01T17:22:12.171Z,25.53
2018-02-01T17:24:44.647Z,21.43
2018-02-01T17:27:17.172Z,20.23
2018-02-01T17:29:49.663Z,21.10
2018-02-01T17:32:22.188Z,42.57
2018-02-01T17:34:54.686Z,56.30
2018-02-01T17:37:27.218Z,38.93
2018-02-01T17:39:59.732Z,139.10
2018-02-01T17:42:32.255Z,28.63
2018-02-01T17:45:04.752Z,29.83
2018-02-01T17:47:37.271Z,64.63
2018-02-01T17:50:16.152Z,40.93
2018-02-01T17:52:48.723Z,42.27
2018-02-01T17:55:21.245Z,36.07
2018-02-01T17:57:53.769Z,29.60
2018-02-01T18:00:26.271Z,49.00
2018-02-01T18:02:58.801Z,31.67
2018-02-01T18:05:31.324Z,38.43
2018-02-01T18:08:03.850Z,33.87
2018-02-01T18:10:36.357Z,24.20
2018-02-01T18:13:08.885Z,46.03
2018-02-01T18:15:41.574Z,40.60
2018-02-01T18:18:14.124Z,70.77
2018-02-01T18:20:46.636Z,35.83
2018-02-01T18:23:19.157Z,36.10
2018-02-01T18:25:51.661Z,26.77
2018-02-01T18:28:24.252Z,26.77
2018-02-01T18:30:56.821Z,36.33
2018-02-01T18:33:29.329Z,26.43
2018-02-01T18:36:01.902Z,27.17
2018-02-01T18:38:34.482Z,31.87
2018-02-01T18:41:06.991Z,69.47
2018-02-01T18:43:39.554Z,22.30
2018-02-01T18:46:12.060Z,36.37
2018-02-01T18:48:44.571Z,53.77
2018-02-01T18:51:17.276Z,32.53
2018-02-01T18:53:49.799Z,28.20
2018-02-01T18:56:23.127Z,44.67
2018-02-01T18:58:59.378Z,39.93
2018-02-01T19:01:31.892Z,41.70
2018-02-01T19:04:04.421Z,42.50
2018-02-01T19:06:36.925Z,55.00
2018-02-01T19:09:09.454Z,53.67
2018-02-01T19:11:41.939Z,20.10
2018-02-01T19:14:14.454Z,46.53
2018-02-01T19:16:46.983Z,30.40
2018-02-01T19:19:19.503Z,20.47
2018-02-01T19:21:52.032Z,23.73
2018-02-01T19:24:24.556Z,32.03
2018-02-01T19:26:57.988Z,19.13
2018-02-01T19:29:30.551Z,24.40
2018-02-01T19:32:03.061Z,25.40
2018-02-01T19:34:35.554Z,29.07
2018-02-01T19:37:08.094Z,28.27
2018-02-01T19:39:43.598Z,27.83
2018-02-01T19:42:16.194Z,34.63
2018-02-01T19:44:48.695Z,34.07
2018-02-01T19:47:21.222Z,36.73
2018-02-01T19:49:53.727Z,32.87
2018-02-01T19:52:28.346Z,35.10
2018-02-01T19:55:00.854Z,23.87
2018-02-01T19:57:33.387Z,31.13
2018-02-01T20:00:05.888Z,37.30
2018-02-01T20:02:38.395Z,30.33
2018-02-01T20:05:10.891Z,52.90
2018-02-01T20:07:43.418Z,34.17
2018-02-01T20:10:15.929Z,67.20
2018-02-01T20:12:48.444Z,26.10
2018-02-01T20:15:20.970Z,36.20
2018-02-01T20:17:53.626Z,42.27
2018-02-01T20:20:26.774Z,54.20
2018-02-01T20:22:59.278Z,40.33
2018-02-01T20:25:31.773Z,65.97
2018-02-01T20:28:04.294Z,82.27
2018-02-01T20:30:37.126Z,29.80
2018-02-01T20:33:10.091Z,40.43
2018-02-01T20:35:42.741Z,37.50
2018-02-01T20:38:16.172Z,54.13
2018-02-01T20:40:48.676Z,37.47
2018-02-01T20:43:21.186Z,79.63
2018-02-01T20:45:53.693Z,45.40
2018-02-01T20:48:26.284Z,46.10
2018-02-01T20:50:58.878Z,62.63
2018-02-01T20:53:31.436Z,67.30
2018-02-01T20:56:03.960Z,45.97
2018-02-01T20:58:36.477Z,37.17
2018-02-01T21:01:09.011Z,42.07
2018-02-01T21:03:41.538Z,51.77
2018-02-01T21:06:14.045Z,43.47
2018-02-01T21:08:46.592Z,59.67
2018-02-01T21:11:19.140Z,59.03
2018-02-01T21:13:51.679Z,47.80
2018-02-01T21:16:24.175Z,47.57
2018-02-01T21:18:56.694Z,73.37
2018-02-01T21:21:29.193Z,73.97
2018-02-01T21:24:02.916Z,55.90
2018-02-01T21:26:35.486Z,59.53
2018-02-01T21:29:08.024Z,92.70
2018-02-01T21:31:40.527Z,139.27
2018-02-01T21:34:13.046Z,67.60
2018-02-01T21:36:45.556Z,64.60
2018-02-01T21:39:18.073Z,53.83
2018-02-01T21:41:50.589Z,65.20
2018-02-01T21:44:23.093Z,50.60
2018-02-01T21:46:55.751Z,68.67
2018-02-01T21:49:28.257Z,95.70
2018-02-01T21:52:00.758Z,55.47
2018-02-01T21:54:33.278Z,75.30
2018-02-01T21:57:05.778Z,56.73
2018-02-01T21:59:38.315Z,103.20
2018-02-01T22:02:10.813Z,77.83
2018-02-01T22:04:43.349Z,183.90
2018-02-01T22:07:15.848Z,62.77
2018-02-01T22:09:48.375Z,64.77
2018-02-01T22:12:20.878Z,48.03
2018-02-01T22:14:53.392Z,70.90
2018-02-01T22:17:25.883Z,69.20
2018-02-01T22:19:58.406Z,66.03
2018-02-01T22:22:37.811Z,41.47
2018-02-01T22:25:10.340Z,79.53
2018-02-01T22:27:42.835Z,73.37
2018-02-01T22:30:15.348Z,71.53
2018-02-01T22:32:47.850Z,56.60
2018-02-01T22:35:20.375Z,54.77
2018-02-01T22:37:52.934Z,43.37
2018-02-01T22:40:25.739Z,63.10
2018-02-01T22:42:58.223Z,65.07
2018-02-01T22:45:30.738Z,64.03
2018-02-01T22:48:03.256Z,62.13
2018-02-01T22:50:35.794Z,67.20
2018-02-01T22:53:08.305Z,49.43
2018-02-01T22:55:40.813Z,54.67
2018-02-01T22:58:13.319Z,61.20
2018-02-01T23:00:45.823Z,47.67
2018-02-01T23:03:18.333Z,48.50
2018-02-01T23:05:50.829Z,52.37
2018-02-01T23:08:23.357Z,38.47
2018-02-01T23:10:55.854Z,29.37
2018-02-01T23:13:28.371Z,48.57
2018-02-01T23:16:00.878Z,62.63
2018-02-01T23:18:33.405Z,56.07
2018-02-01T23:21:05.894Z,64.27
2018-02-01T23:23:38.416Z,45.63
2018-02-01T23:26:10.938Z,44.43
2018-02-01T23:28:43.466Z,52.40
2018-02-01T23:31:16.203Z,53.40
2018-02-01T23:33:48.730Z,42.23
2018-02-01T23:36:21.243Z,47.73
2018-02-01T23:38:53.769Z,65.63
2018-02-01T23:41:26.376Z,64.13
2018-02-01T23:43:58.892Z,59.20
2018-02-01T23:46:31.393Z,65.30
2018-02-01T23:49:03.896Z,48.07
2018-02-01T23:51:36.385Z,34.00
2018-02-01T23:54:08.910Z,59.30
2018-02-01T23:56:41.403Z,54.57
2018-02-01T23:59:13.928Z,48.17
